Time;durP1;ratioP1;P1;durP2;ratioP2;P2;SDS_P1;SDS_P2;PMS_P1;PMS_P2;Temp;Humidity;BMP_temperature;BMP_pressure;BME280_temperature;BME280_humidity;BME280_pressure;Samples;Min_cycle;Max_cycle;Signal;HPM_P1;HPM_P2
2022/10/23 00:01:19;;;;;;;;;;;13.00;97.50;;;;;;4988069;28;20012;-68
2022/10/23 00:03:45;;;;;;;;;;;13.00;97.50;;;;;;4992299;28;20274;-68
2022/10/23 00:06:12;;;;;;;;;;;13.00;97.50;;;;;;4988670;28;19942;-68
2022/10/23 00:08:38;;;;;;;;;;;13.00;97.50;;;;;;4988938;28;20351;-68
2022/10/23 00:11:10;;;;;;;;;;;13.00;97.50;;;;;;4987655;28;19929;-68
2022/10/23 00:13:36;;;;;;;;;;;13.00;97.50;;;;;;4987030;28;19914;-68
2022/10/23 00:16:02;;;;;;;;;;;13.00;97.50;;;;;;4987718;28;19924;-69
2022/10/23 00:18:27;;;;;;;;;;;13.00;97.50;;;;;;4976637;28;19914;-68
2022/10/23 00:20:53;;;;;;;;;;;13.00;97.50;;;;;;4968648;28;19922;-68
2022/10/23 00:23:18;;;;;;;;;;;13.00;97.50;;;;;;4968885;28;19910;-69
2022/10/23 00:25:44;;;;;;;;;;;13.00;97.50;;;;;;4968729;28;19910;-68
2022/10/23 00:28:09;;;;;;;;;;;13.00;97.50;;;;;;4978805;28;20390;-68
2022/10/23 00:30:35;;;;;;;;;;;12.90;97.50;;;;;;4987753;28;19918;-68
2022/10/23 00:33:00;;;;;;;;;;;12.90;97.50;;;;;;4999229;28;19913;-69
2022/10/23 00:35:26;;;;;;;;;;;12.90;97.40;;;;;;5007862;28;19964;-68
2022/10/23 00:37:51;;;;;;;;;;;12.90;97.50;;;;;;4990169;28;19973;-68
2022/10/23 00:40:17;;;;;;;;;;;12.90;97.50;;;;;;4987459;28;19914;-68
2022/10/23 00:42:42;;;;;;;;;;;12.90;97.50;;;;;;4987579;28;20039;-68
2022/10/23 00:45:16;;;;;;;;;;;12.90;97.50;;;;;;4987219;28;20012;-68
2022/10/23 00:47:43;;;;;;;;;;;12.90;97.50;;;;;;4985973;28;19994;-68
2022/10/23 00:50:08;;;;;;;;;;;12.90;97.50;;;;;;4977072;28;20562;-69
2022/10/23 00:52:36;;;;;;;;;;;12.90;97.50;;;;;;4987486;28;19918;-68
2022/10/23 00:55:02;;;;;;;;;;;12.90;97.50;;;;;;4987529;28;20709;-69
2022/10/23 00:57:28;;;;;;;;;;;12.90;97.50;;;;;;4987094;28;19953;-70
2022/10/23 00:59:53;;;;;;;;;;;12.90;97.50;;;;;;4986215;28;20547;-69
2022/10/23 01:02:19;;;;;;;;;;;12.90;97.50;;;;;;4992488;28;20601;-69
2022/10/23 01:04:44;;;;;;;;;;;12.80;97.40;;;;;;4992102;28;20378;-69
2022/10/23 01:07:10;;;;;;;;;;;12.90;97.50;;;;;;4986887;28;19925;-68
2022/10/23 01:09:41;;;;;;;;;;;12.80;97.50;;;;;;4986922;28;20475;-68
2022/10/23 01:12:14;;;;;;;;;;;12.80;97.40;;;;;;4987519;28;20036;-68
2022/10/23 01:14:42;;;;;;;;;;;12.80;97.40;;;;;;4986965;28;20016;-68
2022/10/23 01:17:11;;;;;;;;;;;12.80;97.50;;;;;;4987004;28;19913;-68
2022/10/23 01:19:45;;;;;;;;;;;12.80;97.40;;;;;;4972543;28;19968;-68
2022/10/23 01:22:20;;;;;;;;;;;12.80;97.50;;;;;;4986515;28;20621;-68
2022/10/23 01:24:56;;;;;;;;;;;12.80;97.40;;;;;;4987142;28;19917;-68
2022/10/23 01:27:21;;;;;;;;;;;12.80;97.50;;;;;;4987091;28;19920;-69
2022/10/23 01:29:52;;;;;;;;;;;12.80;97.40;;;;;;4986728;28;19913;-68
2022/10/23 01:32:26;;;;;;;;;;;12.80;97.40;;;;;;5006979;28;19913;-68
2022/10/23 01:34:58;;;;;;;;;;;12.80;97.40;;;;;;5006661;28;19971;-69
2022/10/23 01:37:27;;;;;;;;;;;12.80;97.40;;;;;;4992929;28;19918;-68
2022/10/23 01:39:55;;;;;;;;;;;12.80;97.40;;;;;;4986777;28;20341;-68
2022/10/23 01:42:29;;;;;;;;;;;12.80;97.40;;;;;;4987155;28;19918;-68
2022/10/23 01:44:58;;;;;;;;;;;12.80;97.40;;;;;;4986896;28;19914;-68
2022/10/23 01:47:25;;;;;;;;;;;12.70;97.40;;;;;;4985959;28;19914;-68
2022/10/23 01:49:51;;;;;;;;;;;12.80;97.40;;;;;;4974692;28;20076;-68
2022/10/23 01:52:17;;;;;;;;;;;12.80;97.40;;;;;;4986271;28;20058;-68
2022/10/23 01:54:43;;;;;;;;;;;12.80;97.40;;;;;;4986561;28;19996;-69
2022/10/23 01:57:11;;;;;;;;;;;12.80;97.40;;;;;;4984275;28;19921;-68
2022/10/23 01:59:39;;;;;;;;;;;12.70;97.40;;;;;;4985801;28;19914;-68
2022/10/23 02:02:05;;;;;;;;;;;12.70;97.40;;;;;;4986747;28;20003;-68
2022/10/23 02:04:36;;;;;;;;;;;12.70;97.40;;;;;;4986004;28;19910;-68
2022/10/23 02:07:02;;;;;;;;;;;12.70;97.40;;;;;;4986347;28;19921;-68
2022/10/23 02:09:27;;;;;;;;;;;12.70;97.40;;;;;;4985857;28;19922;-68
2022/10/23 02:11:56;;;;;;;;;;;12.70;97.70;;;;;;4986162;28;20593;-69
2022/10/23 02:14:40;;;;;;;;;;;12.70;97.40;;;;;;4983191;28;19924;-68
2022/10/23 02:17:20;;;;;;;;;;;12.70;97.40;;;;;;4986068;28;20008;-69
2022/10/23 02:19:49;;;;;;;;;;;12.70;97.40;;;;;;4975820;28;19913;-68
2022/10/23 02:22:24;;;;;;;;;;;12.70;97.40;;;;;;4985882;28;19960;-68
2022/10/23 02:24:58;;;;;;;;;;;12.80;97.40;;;;;;4985881;28;19914;-69
2022/10/23 02:27:30;;;;;;;;;;;12.70;97.30;;;;;;4984999;28;19925;-68
2022/10/23 02:30:00;;;;;;;;;;;12.70;97.30;;;;;;4985783;28;19914;-68
2022/10/23 02:32:26;;;;;;;;;;;12.70;97.40;;;;;;4991778;28;19921;-68
2022/10/23 02:34:52;;;;;;;;;;;12.70;97.40;;;;;;5003536;28;20637;-68
2022/10/23 02:37:18;;;;;;;;;;;12.70;97.30;;;;;;5005102;28;19925;-68
2022/10/23 02:39:43;;;;;;;;;;;12.70;97.30;;;;;;5005369;28;19914;-68
2022/10/23 02:42:19;;;;;;;;;;;12.70;97.30;;;;;;5004148;28;19917;-68
2022/10/23 02:45:04;;;;;;;;;;;12.70;97.30;;;;;;4964638;28;19914;-68
2022/10/23 02:47:29;;;;;;;;;;;12.70;97.30;;;;;;4970714;28;19921;-68
2022/10/23 02:49:58;;;;;;;;;;;12.70;97.30;;;;;;4974096;28;19913;-68
2022/10/23 02:52:46;;;;;;;;;;;12.70;97.30;;;;;;4984869;28;19914;-68
2022/10/23 02:55:20;;;;;;;;;;;12.70;97.30;;;;;;4985166;28;20012;-68
2022/10/23 02:58:09;;;;;;;;;;;12.70;97.30;;;;;;4985469;28;19991;-68
2022/10/23 03:00:36;;;;;;;;;;;12.70;97.40;;;;;;4984445;28;19933;-68
2022/10/23 03:03:07;;;;;;;;;;;12.70;97.30;;;;;;4996025;28;20003;-69
2022/10/23 03:05:34;;;;;;;;;;;12.70;97.30;;;;;;5004499;28;20647;-69
2022/10/23 03:08:02;;;;;;;;;;;12.70;97.30;;;;;;5004425;28;19913;-68
2022/10/23 03:10:27;;;;;;;;;;;12.70;97.30;;;;;;5004772;28;19921;-68
2022/10/23 03:12:53;;;;;;;;;;;12.70;97.30;;;;;;5004735;28;20636;-68
2022/10/23 03:15:18;;;;;;;;;;;12.70;97.30;;;;;;5004848;28;19913;-69
2022/10/23 03:17:44;;;;;;;;;;;12.70;97.30;;;;;;4990505;28;20031;-68
2022/10/23 03:20:10;;;;;;;;;;;12.70;97.30;;;;;;4972270;28;19963;-68
2022/10/23 03:22:35;;;;;;;;;;;12.70;97.30;;;;;;4994181;28;20698;-68
2022/10/23 03:25:01;;;;;;;;;;;12.70;97.20;;;;;;5004695;28;19925;-68
2022/10/23 03:27:26;;;;;;;;;;;12.70;97.30;;;;;;4995736;28;19914;-68
2022/10/23 03:29:52;;;;;;;;;;;12.70;97.30;;;;;;4984810;28;19914;-68
2022/10/23 03:32:17;;;;;;;;;;;12.70;97.30;;;;;;4990449;28;19953;-68
2022/10/23 03:34:43;;;;;;;;;;;12.70;97.30;;;;;;4986935;28;19964;-68
2022/10/23 03:37:08;;;;;;;;;;;12.70;97.30;;;;;;4985563;28;19913;-68
2022/10/23 03:39:33;;;;;;;;;;;12.70;97.30;;;;;;4984513;28;19910;-69
2022/10/23 03:41:59;;;;;;;;;;;12.70;97.30;;;;;;4983770;28;19921;-68
2022/10/23 03:44:25;;;;;;;;;;;12.70;97.30;;;;;;4985195;28;20260;-68
2022/10/23 03:46:50;;;;;;;;;;;12.70;97.30;;;;;;4985065;28;19972;-68
2022/10/23 03:49:16;;;;;;;;;;;12.70;97.30;;;;;;4972913;28;20299;-68
2022/10/23 03:51:42;;;;;;;;;;;12.70;97.30;;;;;;4984840;28;20033;-68
2022/10/23 03:54:08;;;;;;;;;;;12.70;97.30;;;;;;4985590;28;19914;-68
2022/10/23 03:56:33;;;;;;;;;;;12.60;97.30;;;;;;4984168;28;19925;-68
2022/10/23 03:58:59;;;;;;;;;;;12.60;97.40;;;;;;4984736;28;20387;-68
2022/10/23 04:01:25;;;;;;;;;;;12.60;97.30;;;;;;4984301;28;19976;-68
2022/10/23 04:03:50;;;;;;;;;;;12.60;97.30;;;;;;5002963;28;19913;-69
2022/10/23 04:06:16;;;;;;;;;;;12.60;97.40;;;;;;4997531;28;20546;-69
2022/10/23 04:08:45;;;;;;;;;;;12.60;97.30;;;;;;4983689;28;20016;-68
2022/10/23 04:11:10;;;;;;;;;;;12.60;97.30;;;;;;4984854;28;19925;-69
2022/10/23 04:13:36;;;;;;;;;;;12.60;97.40;;;;;;4984426;28;20516;-68
2022/10/23 04:16:02;;;;;;;;;;;12.60;97.40;;;;;;4984619;28;19917;-69
2022/10/23 04:18:27;;;;;;;;;;;12.60;97.40;;;;;;4976886;28;19914;-69
2022/10/23 04:20:53;;;;;;;;;;;12.60;97.40;;;;;;4966455;28;19922;-69
2022/10/23 04:23:18;;;;;;;;;;;12.60;97.40;;;;;;4972386;28;19921;-68
2022/10/23 04:25:44;;;;;;;;;;;12.60;97.40;;;;;;4987669;28;19972;-68
2022/10/23 04:28:09;;;;;;;;;;;12.60;97.40;;;;;;4987950;28;19910;-68
2022/10/23 04:30:34;;;;;;;;;;;12.60;97.40;;;;;;4987261;28;19914;-69
2022/10/23 04:33:00;;;;;;;;;;;12.60;97.40;;;;;;4998775;28;19948;-68
2022/10/23 04:35:25;;;;;;;;;;;12.60;97.40;;;;;;5007056;28;19913;-68
2022/10/23 04:37:51;;;;;;;;;;;12.60;97.40;;;;;;5006642;28;19955;-68
2022/10/23 04:40:16;;;;;;;;;;;12.60;97.40;;;;;;4998477;28;19913;-68
2022/10/23 04:42:42;;;;;;;;;;;12.60;97.40;;;;;;4987751;28;19921;-69
2022/10/23 04:45:07;;;;;;;;;;;12.60;97.40;;;;;;4987168;28;19914;-69
2022/10/23 04:47:33;;;;;;;;;;;12.50;97.40;;;;;;4987336;28;19914;-68
2022/10/23 04:49:58;;;;;;;;;;;12.60;97.40;;;;;;4975735;28;19967;-68
2022/10/23 04:52:24;;;;;;;;;;;12.60;97.40;;;;;;4987678;28;19921;-68
2022/10/23 04:54:49;;;;;;;;;;;12.50;97.40;;;;;;4988035;28;19933;-68
2022/10/23 04:57:15;;;;;;;;;;;12.60;97.40;;;;;;4990757;28;19948;-68
2022/10/23 04:59:40;;;;;;;;;;;12.60;97.40;;;;;;4992201;28;19918;-68
2022/10/23 05:02:06;;;;;;;;;;;12.60;97.40;;;;;;4991112;28;20282;-68
2022/10/23 05:04:31;;;;;;;;;;;12.60;97.40;;;;;;5007545;28;20004;-68
2022/10/23 05:06:57;;;;;;;;;;;12.60;97.40;;;;;;5007214;28;20461;-68
2022/10/23 05:09:22;;;;;;;;;;;12.60;97.40;;;;;;5005111;28;20016;-68
2022/10/23 05:11:49;;;;;;;;;;;12.60;97.40;;;;;;5021841;28;20138;-68
2022/10/23 05:14:14;;;;;;;;;;;12.60;97.30;;;;;;4990494;28;19973;-68
2022/10/23 05:16:49;;;;;;;;;;;12.60;97.30;;;;;;4987743;28;19976;-68
2022/10/23 05:19:20;;;;;;;;;;;12.60;97.30;;;;;;4973584;28;19914;-68
2022/10/23 05:21:47;;;;;;;;;;;12.60;97.30;;;;;;4967940;28;20633;-68
2022/10/23 05:24:12;;;;;;;;;;;12.60;97.30;;;;;;4968156;28;19937;-69
2022/10/23 05:26:37;;;;;;;;;;;12.60;97.30;;;;;;4967751;28;19914;-68
2022/10/23 05:29:03;;;;;;;;;;;12.60;97.30;;;;;;5002909;28;20378;-68
2022/10/23 05:31:29;;;;;;;;;;;12.60;97.30;;;;;;4986472;28;19922;-68
2022/10/23 05:33:55;;;;;;;;;;;12.60;97.30;;;;;;5003502;28;19914;-68
2022/10/23 05:36:21;;;;;;;;;;;12.60;97.30;;;;;;5006473;28;19987;-68
2022/10/23 05:38:46;;;;;;;;;;;12.60;97.30;;;;;;5006895;28;20652;-68
2022/10/23 05:41:12;;;;;;;;;;;12.60;97.20;;;;;;5005832;28;19921;-69
2022/10/23 05:43:37;;;;;;;;;;;12.60;97.30;;;;;;5006330;28;19913;-69
2022/10/23 05:46:05;;;;;;;;;;;12.60;97.30;;;;;;5000918;28;19917;-68
2022/10/23 05:48:33;;;;;;;;;;;12.60;97.20;;;;;;4986473;28;19918;-69
2022/10/23 05:51:03;;;;;;;;;;;12.60;97.30;;;;;;4986103;28;19920;-68
2022/10/23 05:53:28;;;;;;;;;;;12.60;97.20;;;;;;4986609;28;19918;-68
2022/10/23 05:55:54;;;;;;;;;;;12.60;97.30;;;;;;4986213;28;19940;-68
2022/10/23 05:58:19;;;;;;;;;;;12.60;97.30;;;;;;4998187;28;20008;-69
2022/10/23 06:00:45;;;;;;;;;;;12.60;97.30;;;;;;5005501;28;20676;-69
2022/10/23 06:03:10;;;;;;;;;;;12.60;97.30;;;;;;4998117;28;19918;-68
2022/10/23 06:05:36;;;;;;;;;;;12.50;97.20;;;;;;4980404;28;20577;-68
2022/10/23 06:08:01;;;;;;;;;;;12.60;97.30;;;;;;4986137;28;19918;-69
2022/10/23 06:10:27;;;;;;;;;;;12.60;97.30;;;;;;4985896;28;19929;-69
2022/10/23 06:12:52;;;;;;;;;;;12.50;97.30;;;;;;4986149;28;19914;-68
2022/10/23 06:15:18;;;;;;;;;;;12.50;97.30;;;;;;4986266;28;20474;-68
2022/10/23 06:17:43;;;;;;;;;;;12.50;97.30;;;;;;4985506;28;19914;-68
2022/10/23 06:20:09;;;;;;;;;;;12.50;97.30;;;;;;4979214;28;19922;-68
2022/10/23 06:22:34;;;;;;;;;;;12.60;97.30;;;;;;4993424;28;19922;-68
2022/10/23 06:25:00;;;;;;;;;;;12.60;97.30;;;;;;4986100;28;20438;-68
2022/10/23 06:27:25;;;;;;;;;;;12.50;97.30;;;;;;4990539;28;19974;-69
2022/10/23 06:29:51;;;;;;;;;;;12.60;97.30;;;;;;5005366;28;19917;-68
2022/10/23 06:32:17;;;;;;;;;;;12.50;97.20;;;;;;5005664;28;19991;-68
2022/10/23 06:34:42;;;;;;;;;;;12.50;97.30;;;;;;5005986;28;20600;-68
2022/10/23 06:37:08;;;;;;;;;;;12.50;97.30;;;;;;4990779;28;19918;-68
2022/10/23 06:39:35;;;;;;;;;;;12.60;97.30;;;;;;4985278;28;19910;-69
2022/10/23 06:42:01;;;;;;;;;;;12.60;97.20;;;;;;4985618;28;19924;-68
2022/10/23 06:44:26;;;;;;;;;;;12.60;97.20;;;;;;4985511;28;19918;-68
2022/10/23 06:46:52;;;;;;;;;;;12.60;97.20;;;;;;4985646;28;19922;-68
2022/10/23 06:49:17;;;;;;;;;;;12.60;97.20;;;;;;4974204;28;19927;-68
2022/10/23 06:51:43;;;;;;;;;;;12.60;97.20;;;;;;4985674;28;19968;-68
2022/10/23 06:54:09;;;;;;;;;;;12.60;97.20;;;;;;4985337;28;19924;-68
2022/10/23 06:56:35;;;;;;;;;;;12.60;97.50;;;;;;4985445;28;19948;-68
2022/10/23 06:59:00;;;;;;;;;;;12.60;97.20;;;;;;5002564;28;19952;-68
2022/10/23 07:01:26;;;;;;;;;;;12.60;97.10;;;;;;5005074;28;19917;-68
2022/10/23 07:03:51;;;;;;;;;;;12.60;97.20;;;;;;5004815;28;20693;-68
2022/10/23 07:06:17;;;;;;;;;;;12.60;97.10;;;;;;5005075;28;19913;-69
2022/10/23 07:08:42;;;;;;;;;;;12.60;97.10;;;;;;5004914;28;20522;-68
2022/10/23 07:11:09;;;;;;;;;;;12.60;97.10;;;;;;4986813;28;19972;-69
2022/10/23 07:13:34;;;;;;;;;;;12.60;97.20;;;;;;4985031;28;20477;-68
2022/10/23 07:16:14;;;;;;;;;;;12.70;97.20;;;;;;4985327;28;19914;-70
2022/10/23 07:18:39;;;;;;;;;;;12.60;97.10;;;;;;4976689;28;19914;-68
2022/10/23 07:21:04;;;;;;;;;;;12.70;97.10;;;;;;4965298;28;19973;-69
2022/10/23 07:23:30;;;;;;;;;;;12.70;97.20;;;;;;4965949;28;20352;-68
2022/10/23 07:26:01;;;;;;;;;;;12.70;97.10;;;;;;4966113;28;19914;-68
2022/10/23 07:28:26;;;;;;;;;;;12.70;97.10;;;;;;4998325;28;19909;-68
2022/10/23 07:30:56;;;;;;;;;;;12.70;97.10;;;;;;5004325;28;20617;-69
2022/10/23 07:33:21;;;;;;;;;;;12.70;97.10;;;;;;5004575;28;19917;-68
2022/10/23 07:35:47;;;;;;;;;;;12.70;97.10;;;;;;4987095;28;19969;-68
2022/10/23 07:38:12;;;;;;;;;;;12.70;97.10;;;;;;4984720;28;20317;-68
2022/10/23 07:40:38;;;;;;;;;;;12.70;97.00;;;;;;4984717;28;19920;-68
2022/10/23 07:43:03;;;;;;;;;;;12.80;97.10;;;;;;4985055;28;20339;-68
2022/10/23 07:45:29;;;;;;;;;;;12.80;97.00;;;;;;4985084;28;19914;-68
2022/10/23 07:47:54;;;;;;;;;;;12.80;97.00;;;;;;4980896;28;19910;-68
2022/10/23 07:50:20;;;;;;;;;;;12.80;97.00;;;;;;4975750;28;20581;-68
2022/10/23 07:52:45;;;;;;;;;;;12.80;96.90;;;;;;4985003;28;20024;-68
2022/10/23 07:55:11;;;;;;;;;;;12.80;96.90;;;;;;4986487;28;19918;-68
2022/10/23 07:57:38;;;;;;;;;;;12.80;96.90;;;;;;4994978;28;20001;-68
2022/10/23 08:00:05;;;;;;;;;;;12.90;96.90;;;;;;5002710;28;19921;-68
2022/10/23 08:02:30;;;;;;;;;;;12.90;96.90;;;;;;4995836;28;19923;-68
2022/10/23 08:04:56;;;;;;;;;;;12.90;96.90;;;;;;4992128;28;20591;-68
2022/10/23 08:07:21;;;;;;;;;;;12.90;96.90;;;;;;5007797;28;19991;-68
2022/10/23 08:09:47;;;;;;;;;;;12.90;96.90;;;;;;5007977;28;19929;-68
2022/10/23 08:12:12;;;;;;;;;;;13.00;96.80;;;;;;5008345;28;20667;-68
2022/10/23 08:14:38;;;;;;;;;;;13.00;96.90;;;;;;5008359;28;19920;-67
2022/10/23 08:17:04;;;;;;;;;;;13.00;96.90;;;;;;5007498;28;20448;-68
2022/10/23 08:19:29;;;;;;;;;;;13.10;96.90;;;;;;4987521;28;20041;-68
2022/10/23 08:21:56;;;;;;;;;;;13.10;96.90;;;;;;4987765;28;20492;-68
2022/10/23 08:24:21;;;;;;;;;;;13.10;96.90;;;;;;4992200;28;20505;-68
2022/10/23 08:26:48;;;;;;;;;;;13.20;96.90;;;;;;5005940;28;19921;-68
2022/10/23 08:29:14;;;;;;;;;;;13.20;96.80;;;;;;5007441;28;19944;-67
2022/10/23 08:31:39;;;;;;;;;;;13.30;97.00;;;;;;5007046;28;20539;-68
2022/10/23 08:34:05;;;;;;;;;;;13.30;96.90;;;;;;5003969;28;20001;-67
2022/10/23 08:36:32;;;;;;;;;;;13.30;96.80;;;;;;4988151;28;19949;-68
2022/10/23 08:38:57;;;;;;;;;;;13.40;96.90;;;;;;4988315;28;19945;-68
2022/10/23 08:41:36;;;;;;;;;;;13.40;96.80;;;;;;4988027;28;20335;-68
2022/10/23 08:44:18;;;;;;;;;;;13.50;96.90;;;;;;4988140;28;19964;-67
2022/10/23 08:46:45;;;;;;;;;;;13.50;96.50;;;;;;4987621;28;19914;-67
2022/10/23 08:49:17;;;;;;;;;;;13.60;96.70;;;;;;4976249;28;19921;-68
2022/10/23 08:51:48;;;;;;;;;;;13.60;96.50;;;;;;4985866;28;19988;-68
2022/10/23 08:54:19;;;;;;;;;;;13.70;96.60;;;;;;4987730;28;19913;-67
2022/10/23 08:56:53;;;;;;;;;;;13.70;96.50;;;;;;4987572;28;19921;-67
2022/10/23 08:59:26;;;;;;;;;;;13.80;96.60;;;;;;4987390;28;19913;-67
2022/10/23 09:01:58;;;;;;;;;;;13.90;96.40;;;;;;4989662;28;19917;-67
2022/10/23 09:04:24;;;;;;;;;;;13.90;96.50;;;;;;5006950;28;19913;-67
2022/10/23 09:06:58;;;;;;;;;;;14.00;96.20;;;;;;4993345;28;19916;-67
2022/10/23 09:09:33;;;;;;;;;;;14.00;96.40;;;;;;4991219;28;19922;-67
2022/10/23 09:12:02;;;;;;;;;;;14.10;96.30;;;;;;4988036;28;19914;-67
2022/10/23 09:14:30;;;;;;;;;;;14.10;96.20;;;;;;4986988;28;20020;-68
2022/10/23 09:17:09;;;;;;;;;;;14.10;95.90;;;;;;4987054;28;20045;-68
2022/10/23 09:19:34;;;;;;;;;;;14.20;96.00;;;;;;4983471;28;19910;-68
2022/10/23 09:22:00;;;;;;;;;;;14.20;96.00;;;;;;4987500;28;20418;-67
2022/10/23 09:24:30;;;;;;;;;;;14.20;96.10;;;;;;4987027;28;19916;-67
2022/10/23 09:26:56;;;;;;;;;;;14.30;95.90;;;;;;4987463;28;20597;-68
2022/10/23 09:29:44;;;;;;;;;;;14.30;96.20;;;;;;5006819;28;20011;-67
2022/10/23 09:32:09;;;;;;;;;;;14.40;96.20;;;;;;5006420;28;19913;-67
2022/10/23 09:34:35;;;;;;;;;;;14.40;95.90;;;;;;5006352;28;19913;-68
2022/10/23 09:37:02;;;;;;;;;;;14.40;96.20;;;;;;5006823;28;19921;-67
2022/10/23 09:39:27;;;;;;;;;;;14.40;96.00;;;;;;5006756;28;19917;-68
2022/10/23 09:41:53;;;;;;;;;;;14.50;96.20;;;;;;4996655;28;19926;-68
2022/10/23 09:44:41;;;;;;;;;;;14.50;95.90;;;;;;4986767;28;20104;-68
2022/10/23 09:47:10;;;;;;;;;;;14.50;96.10;;;;;;4986178;28;20052;-67
2022/10/23 09:49:38;;;;;;;;;;;14.50;95.90;;;;;;4974655;28;19916;-67
2022/10/23 09:52:16;;;;;;;;;;;14.60;96.00;;;;;;4986115;28;19975;-68
2022/10/23 09:54:46;;;;;;;;;;;14.60;96.00;;;;;;4986121;28;20373;-68
2022/10/23 09:57:21;;;;;;;;;;;14.70;95.90;;;;;;4988552;28;19924;-68
2022/10/23 09:59:51;;;;;;;;;;;14.70;95.90;;;;;;4986269;28;19917;-68
2022/10/23 10:02:19;;;;;;;;;;;14.70;95.90;;;;;;4991309;28;19913;-67
2022/10/23 10:04:45;;;;;;;;;;;14.80;95.90;;;;;;5005628;28;19944;-68
2022/10/23 10:07:21;;;;;;;;;;;14.80;95.90;;;;;;4988669;28;19957;-68
2022/10/23 10:09:47;;;;;;;;;;;14.80;95.70;;;;;;4983544;28;19922;-68
2022/10/23 10:12:12;;;;;;;;;;;14.90;95.80;;;;;;4985310;28;19917;-68
2022/10/23 10:14:45;;;;;;;;;;;14.90;95.80;;;;;;4985753;28;20410;-68
2022/10/23 10:17:29;;;;;;;;;;;14.90;95.80;;;;;;4985689;28;19993;-68
2022/10/23 10:20:02;;;;;;;;;;;15.00;95.90;;;;;;4966668;28;19921;-68
2022/10/23 10:22:39;;;;;;;;;;;15.00;95.70;;;;;;4966341;28;19918;-68
2022/10/23 10:25:07;;;;;;;;;;;15.10;95.70;;;;;;4965878;28;20016;-67
2022/10/23 10:27:51;;;;;;;;;;;15.10;95.70;;;;;;4976878;28;20120;-68
2022/10/23 10:30:21;;;;;;;;;;;15.20;95.70;;;;;;4991227;28;19920;-67
2022/10/23 10:33:05;;;;;;;;;;;15.20;95.60;;;;;;4994327;28;19929;-67
2022/10/23 10:35:30;;;;;;;;;;;15.20;95.50;;;;;;5004857;28;20285;-68
2022/10/23 10:37:56;;;;;;;;;;;15.30;95.50;;;;;;5004809;28;19989;-68
2022/10/23 10:40:41;;;;;;;;;;;15.30;95.50;;;;;;5004597;28;20819;-68
2022/10/23 10:43:22;;;;;;;;;;;15.30;95.60;;;;;;5004219;28;19917;-67
2022/10/23 10:45:48;;;;;;;;;;;15.30;95.50;;;;;;5004483;28;20725;-67
2022/10/23 10:48:22;;;;;;;;;;;15.30;95.50;;;;;;4989504;28;20030;-67
2022/10/23 10:51:06;;;;;;;;;;;15.40;95.50;;;;;;4979911;28;19962;-68
2022/10/23 10:53:48;;;;;;;;;;;15.40;95.40;;;;;;4985334;28;20669;-68
2022/10/23 10:56:14;;;;;;;;;;;15.40;95.50;;;;;;4985092;28;19913;-68
2022/10/23 10:58:51;;;;;;;;;;;15.40;95.70;;;;;;4997840;28;19997;-68
2022/10/23 11:01:27;;;;;;;;;;;15.40;95.70;;;;;;4980944;28;19925;-68
2022/10/23 11:04:13;;;;;;;;;;;15.50;95.60;;;;;;5001689;28;19967;-67
2022/10/23 11:06:40;;;;;;;;;;;15.50;95.50;;;;;;4992818;28;19936;-68
2022/10/23 11:09:17;;;;;;;;;;;15.60;95.40;;;;;;4983664;28;20028;-68
2022/10/23 11:11:43;;;;;;;;;;;15.60;95.40;;;;;;4984237;28;19914;-68
2022/10/23 11:14:21;;;;;;;;;;;15.60;95.50;;;;;;4985163;28;20140;-68
2022/10/23 11:16:49;;;;;;;;;;;15.60;95.40;;;;;;4984484;28;19955;-67
2022/10/23 11:19:25;;;;;;;;;;;15.60;96.00;;;;;;4994375;28;19924;-68
2022/10/23 11:21:53;;;;;;;;;;;15.60;95.70;;;;;;5004545;28;20068;-67
2022/10/23 11:24:34;;;;;;;;;;;15.60;95.60;;;;;;5004663;28;20008;-67
2022/10/23 11:27:02;;;;;;;;;;;15.70;95.90;;;;;;5004362;28;19920;-67
2022/10/23 11:29:30;;;;;;;;;;;15.70;95.50;;;;;;5005866;28;19920;-68
2022/10/23 11:31:59;;;;;;;;;;;15.80;95.40;;;;;;5002488;28;19921;-68
2022/10/23 11:34:42;;;;;;;;;;;15.80;95.40;;;;;;5008416;28;19920;-68
2022/10/23 11:37:08;;;;;;;;;;;15.90;95.40;;;;;;5008505;28;20016;-67
2022/10/23 11:39:35;;;;;;;;;;;16.00;95.40;;;;;;5006728;28;20012;-68
2022/10/23 11:42:03;;;;;;;;;;;16.00;95.40;;;;;;5007232;28;19940;-67
2022/10/23 11:44:35;;;;;;;;;;;16.00;95.30;;;;;;5007149;28;19910;-68
2022/10/23 11:47:19;;;;;;;;;;;16.00;95.20;;;;;;4988444;28;19978;-67
2022/10/23 11:49:44;;;;;;;;;;;16.00;95.20;;;;;;4976535;28;19917;-67
2022/10/23 11:52:22;;;;;;;;;;;16.10;95.30;;;;;;4987794;28;19936;-68
2022/10/23 11:54:47;;;;;;;;;;;16.10;95.30;;;;;;4988544;28;19914;-67
2022/10/23 11:57:14;;;;;;;;;;;16.20;95.30;;;;;;4990746;28;19913;-68
2022/10/23 11:59:48;;;;;;;;;;;16.20;95.20;;;;;;5000542;28;20618;-68
2022/10/23 12:02:31;;;;;;;;;;;16.20;95.20;;;;;;4993139;28;19991;-69
2022/10/23 12:05:00;;;;;;;;;;;16.30;95.30;;;;;;5007869;28;20048;-67
2022/10/23 12:07:26;;;;;;;;;;;16.30;95.20;;;;;;5007959;28;20409;-68
2022/10/23 12:09:53;;;;;;;;;;;16.40;95.20;;;;;;5007718;28;19925;-67
2022/10/23 12:12:39;;;;;;;;;;;16.40;95.20;;;;;;4988560;28;19921;-68
2022/10/23 12:15:07;;;;;;;;;;;16.40;95.20;;;;;;4987830;28;19914;-68
2022/10/23 12:17:35;;;;;;;;;;;16.40;95.60;;;;;;4986061;28;20270;-68
2022/10/23 12:20:03;;;;;;;;;;;16.50;95.30;;;;;;4968427;28;19914;-68
2022/10/23 12:22:36;;;;;;;;;;;16.50;95.10;;;;;;4968725;28;19925;-68
2022/10/23 12:25:04;;;;;;;;;;;16.50;95.20;;;;;;4968466;28;19914;-68
2022/10/23 12:27:39;;;;;;;;;;;16.60;95.40;;;;;;4974607;28;19918;-68
2022/10/23 12:30:14;;;;;;;;;;;16.50;95.30;;;;;;4987836;28;19914;-68
2022/10/23 12:32:51;;;;;;;;;;;16.60;95.40;;;;;;4996321;28;19913;-68
2022/10/23 12:35:17;;;;;;;;;;;16.70;95.40;;;;;;5007695;28;19917;-68
2022/10/23 12:37:53;;;;;;;;;;;16.70;95.20;;;;;;4991299;28;20000;-68
2022/10/23 12:40:19;;;;;;;;;;;16.80;95.40;;;;;;4987426;28;20005;-68
2022/10/23 12:42:52;;;;;;;;;;;16.80;95.50;;;;;;4983230;28;19922;-68
2022/10/23 12:45:22;;;;;;;;;;;16.80;95.20;;;;;;4987688;28;19921;-68
2022/10/23 12:47:48;;;;;;;;;;;16.90;95.30;;;;;;4985697;28;19942;-68
2022/10/23 12:50:15;;;;;;;;;;;16.90;95.50;;;;;;4995475;28;19963;-68
2022/10/23 12:52:49;;;;;;;;;;;17.00;95.10;;;;;;4990335;28;20339;-68
2022/10/23 12:55:14;;;;;;;;;;;17.00;95.20;;;;;;4987766;28;19910;-68
2022/10/23 12:57:40;;;;;;;;;;;17.00;95.10;;;;;;4993533;28;20592;-68
2022/10/23 13:00:10;;;;;;;;;;;17.10;95.20;;;;;;5006460;28;19917;-68
2022/10/23 13:02:35;;;;;;;;;;;17.10;95.10;;;;;;5007535;28;20400;-68
2022/10/23 13:05:02;;;;;;;;;;;17.10;95.20;;;;;;5007640;28;19964;-68
2022/10/23 13:07:29;;;;;;;;;;;17.20;95.00;;;;;;5006934;28;19913;-68
2022/10/23 13:09:54;;;;;;;;;;;17.20;95.00;;;;;;5003342;28;19921;-68
2022/10/23 13:12:23;;;;;;;;;;;17.20;95.00;;;;;;4987517;28;19921;-68
2022/10/23 13:15:06;;;;;;;;;;;17.20;95.00;;;;;;4987555;28;19996;-68
2022/10/23 13:17:55;;;;;;;;;;;17.20;94.90;;;;;;4987350;28;19910;-68
2022/10/23 13:20:23;;;;;;;;;;;17.30;95.20;;;;;;4965845;28;19914;-68
2022/10/23 13:22:52;;;;;;;;;;;17.30;95.00;;;;;;4967234;28;20803;-68
2022/10/23 13:25:19;;;;;;;;;;;17.30;94.80;;;;;;4985518;28;19960;-68
2022/10/23 13:27:44;;;;;;;;;;;17.30;95.00;;;;;;4996813;28;19989;-68
2022/10/23 13:30:29;;;;;;;;;;;17.40;94.90;;;;;;4996119;28;20306;-68
2022/10/23 13:32:55;;;;;;;;;;;17.40;95.00;;;;;;4994342;28;19914;-68
2022/10/23 13:35:21;;;;;;;;;;;17.40;95.10;;;;;;4996249;28;20378;-68
2022/10/23 13:37:47;;;;;;;;;;;17.40;95.00;;;;;;5000038;28;19914;-68
2022/10/23 13:40:18;;;;;;;;;;;17.30;95.10;;;;;;4994587;28;19940;-68
2022/10/23 13:42:47;;;;;;;;;;;17.30;95.50;;;;;;4986946;28;19918;-68
2022/10/23 13:45:17;;;;;;;;;;;17.40;95.40;;;;;;4986592;28;19948;-68
2022/10/23 13:47:42;;;;;;;;;;;17.40;95.40;;;;;;4994598;28;19922;-68
2022/10/23 13:50:10;;;;;;;;;;;17.30;95.40;;;;;;4999060;28;19924;-68
2022/10/23 13:52:35;;;;;;;;;;;17.40;95.50;;;;;;5000173;28;19922;-68
2022/10/23 13:55:01;;;;;;;;;;;17.30;95.50;;;;;;4986445;28;20149;-68
2022/10/23 13:57:26;;;;;;;;;;;17.30;95.50;;;;;;4991376;28;19921;-68
2022/10/23 13:59:52;;;;;;;;;;;17.30;95.40;;;;;;5005969;28;19920;-68
2022/10/23 14:02:21;;;;;;;;;;;17.30;95.40;;;;;;5006359;28;20004;-68
2022/10/23 14:04:48;;;;;;;;;;;17.30;95.60;;;;;;5006816;28;20464;-68
2022/10/23 14:07:13;;;;;;;;;;;17.30;95.60;;;;;;4996568;28;20529;-68
2022/10/23 14:09:39;;;;;;;;;;;17.30;95.60;;;;;;4986581;28;19924;-68
2022/10/23 14:12:04;;;;;;;;;;;17.30;95.50;;;;;;4986483;28;19910;-68
2022/10/23 14:14:30;;;;;;;;;;;17.30;95.50;;;;;;4991396;28;19913;-68
2022/10/23 14:16:55;;;;;;;;;;;17.30;95.40;;;;;;5002596;28;19992;-68
2022/10/23 14:19:21;;;;;;;;;;;17.30;95.60;;;;;;4984077;28;20400;-68
2022/10/23 14:21:46;;;;;;;;;;;17.30;95.70;;;;;;4985662;28;19922;-68
2022/10/23 14:24:13;;;;;;;;;;;17.30;95.60;;;;;;4985838;28;20024;-68